OEWSP LOWS-LSZR
Flight info
| Callsign | OEWSP |
|---|---|
| Flight time | 0h 59m |
| Altitude | 10000 |
| Route | TRAUN L856 KPT |
| Aircraft | C414/L-SBDFGRY/S |
Departure
| Time | 2026-04-25 15:30 |
|---|---|
| Airport | Salzburg Airport (LOWS) |
Arrival
| Time | 2026-04-25 16:30 |
|---|---|
| Airport | Sankt Gallen Altenrhein Airport (LSZR) |
| Time | Latitude | Longitude | Altitude | Speed | Heading |
|---|---|---|---|---|---|
| 2026-04-25 15:18 | 47.79522 | 12.99816 | 1415 ft | 0 kts | 336° |
| 2026-04-25 15:24 | 47.79535 | 12.99825 | 1415 ft | 7 kts | 65° |
| 2026-04-25 15:24 | 47.79550 | 12.99905 | 1415 ft | 7 kts | 66° |
| 2026-04-25 15:24 | 47.79555 | 12.99923 | 1415 ft | 7 kts | 65° |
| 2026-04-25 15:25 | 47.79520 | 13.00009 | 1415 ft | 10 kts | 161° |
| 2026-04-25 15:25 | 47.79454 | 13.00051 | 1415 ft | 10 kts | 156° |
| 2026-04-25 15:25 | 47.79388 | 13.00093 | 1415 ft | 11 kts | 157° |
| 2026-04-25 15:25 | 47.79315 | 13.00138 | 1415 ft | 12 kts | 158° |
| 2026-04-25 15:26 | 47.79235 | 13.00189 | 1415 ft | 13 kts | 156° |
| 2026-04-25 15:26 | 47.79147 | 13.00245 | 1414 ft | 14 kts | 152° |
| 2026-04-25 15:26 | 47.79123 | 13.00324 | 1414 ft | 0 kts | 95° |
| 2026-04-25 15:28 | 47.79123 | 13.00326 | 1414 ft | 2 kts | 95° |
| 2026-04-25 15:28 | 47.79115 | 13.00423 | 1414 ft | 15 kts | 97° |
| 2026-04-25 15:28 | 47.79146 | 13.00509 | 1414 ft | 6 kts | 2° |
| 2026-04-25 15:29 | 47.79197 | 13.00479 | 1415 ft | 26 kts | 336° |
| 2026-04-25 15:29 | 47.79534 | 13.00266 | 1419 ft | 76 kts | 336° |
| 2026-04-25 15:29 | 47.80069 | 12.99893 | 1629 ft | 87 kts | 334° |
| 2026-04-25 15:29 | 47.80676 | 12.99487 | 1723 ft | 110 kts | 341° |
| 2026-04-25 15:30 | 47.81413 | 12.99073 | 1956 ft | 112 kts | 337° |
| 2026-04-25 15:30 | 47.82124 | 12.98611 | 2236 ft | 114 kts | 329° |
| 2026-04-25 15:30 | 47.82615 | 12.97703 | 2506 ft | 117 kts | 298° |
| 2026-04-25 15:30 | 47.83031 | 12.96622 | 2783 ft | 124 kts | 301° |
| 2026-04-25 15:31 | 47.83477 | 12.95492 | 3055 ft | 130 kts | 299° |
| 2026-04-25 15:31 | 47.83940 | 12.94295 | 3317 ft | 136 kts | 299° |
| 2026-04-25 15:31 | 47.84404 | 12.93083 | 3585 ft | 136 kts | 299° |
| 2026-04-25 15:31 | 47.84887 | 12.91847 | 3839 ft | 140 kts | 300° |
| 2026-04-25 15:32 | 47.85386 | 12.90578 | 4099 ft | 143 kts | 300° |
| 2026-04-25 15:32 | 47.85894 | 12.89257 | 4345 ft | 151 kts | 300° |
| 2026-04-25 15:32 | 47.86408 | 12.87914 | 4652 ft | 147 kts | 300° |
| 2026-04-25 15:33 | 47.87382 | 12.85378 | 5382 ft | 138 kts | 300° |
| 2026-04-25 15:33 | 47.87859 | 12.84152 | 5731 ft | 135 kts | 298° |
| 2026-04-25 15:33 | 47.88320 | 12.82961 | 6101 ft | 133 kts | 297° |
| 2026-04-25 15:33 | 47.88769 | 12.81793 | 6471 ft | 129 kts | 298° |
| 2026-04-25 15:34 | 47.89220 | 12.80634 | 6823 ft | 128 kts | 298° |
| 2026-04-25 15:34 | 47.89652 | 12.79493 | 7180 ft | 127 kts | 297° |
| 2026-04-25 15:34 | 47.90080 | 12.78374 | 7540 ft | 123 kts | 298° |
| 2026-04-25 15:34 | 47.90224 | 12.78009 | 7656 ft | 123 kts | 298° |
| 2026-04-25 15:35 | 47.91328 | 12.75136 | 8640 ft | 117 kts | 297° |
| 2026-04-25 15:35 | 47.91727 | 12.74103 | 9008 ft | 114 kts | 296° |
| 2026-04-25 15:35 | 47.92105 | 12.73079 | 9395 ft | 112 kts | 296° |
| 2026-04-25 15:36 | 47.92859 | 12.71059 | 10025 ft | 119 kts | 296° |
| 2026-04-25 15:36 | 47.93305 | 12.69877 | 10042 ft | 143 kts | 297° |
| 2026-04-25 15:36 | 47.93817 | 12.68507 | 10043 ft | 159 kts | 297° |
| 2026-04-25 15:37 | 47.94380 | 12.67023 | 10042 ft | 170 kts | 297° |
| 2026-04-25 15:37 | 47.94971 | 12.65446 | 10045 ft | 178 kts | 297° |
| 2026-04-25 15:37 | 47.95583 | 12.63817 | 10037 ft | 183 kts | 297° |
| 2026-04-25 15:37 | 47.96198 | 12.62148 | 10034 ft | 184 kts | 297° |
| 2026-04-25 15:38 | 47.96823 | 12.60488 | 10034 ft | 184 kts | 297° |
| 2026-04-25 15:38 | 47.97316 | 12.58756 | 10029 ft | 182 kts | 280° |
| 2026-04-25 15:38 | 47.97306 | 12.56886 | 10030 ft | 182 kts | 263° |
| 2026-04-25 15:38 | 47.97130 | 12.55024 | 10030 ft | 181 kts | 264° |
| 2026-04-25 15:39 | 47.96966 | 12.53168 | 10030 ft | 181 kts | 264° |
| 2026-04-25 15:39 | 47.96792 | 12.51313 | 10029 ft | 181 kts | 264° |
| 2026-04-25 15:39 | 47.96619 | 12.49459 | 10033 ft | 181 kts | 264° |
| 2026-04-25 15:39 | 47.96445 | 12.47604 | 10032 ft | 181 kts | 264° |
| 2026-04-25 15:40 | 47.96265 | 12.45754 | 10026 ft | 180 kts | 264° |
| 2026-04-25 15:40 | 47.96207 | 12.45138 | 10033 ft | 180 kts | 264° |
| 2026-04-25 15:40 | 47.95938 | 12.42039 | 10021 ft | 181 kts | 264° |
| 2026-04-25 15:40 | 47.95764 | 12.40190 | 10025 ft | 181 kts | 264° |
| 2026-04-25 15:41 | 47.95586 | 12.38344 | 10021 ft | 180 kts | 264° |
| 2026-04-25 15:41 | 47.95413 | 12.36498 | 10025 ft | 180 kts | 264° |
| 2026-04-25 15:41 | 47.95241 | 12.34657 | 10024 ft | 180 kts | 264° |
| 2026-04-25 15:41 | 47.95068 | 12.32815 | 10025 ft | 180 kts | 264° |
| 2026-04-25 15:42 | 47.94894 | 12.30972 | 10023 ft | 179 kts | 264° |
| 2026-04-25 15:42 | 47.94721 | 12.29134 | 10026 ft | 180 kts | 264° |
| 2026-04-25 15:42 | 47.94547 | 12.27293 | 10023 ft | 180 kts | 264° |
| 2026-04-25 15:42 | 47.94372 | 12.25451 | 10022 ft | 180 kts | 264° |
| 2026-04-25 15:43 | 47.94197 | 12.23602 | 10020 ft | 180 kts | 264° |
| 2026-04-25 15:43 | 47.94024 | 12.21757 | 10020 ft | 180 kts | 264° |
| 2026-04-25 15:43 | 47.93849 | 12.19912 | 10021 ft | 180 kts | 264° |
| 2026-04-25 15:43 | 47.93669 | 12.18067 | 10017 ft | 180 kts | 263° |
| 2026-04-25 15:44 | 47.93490 | 12.16214 | 10019 ft | 181 kts | 263° |
| 2026-04-25 15:44 | 47.93314 | 12.14363 | 10020 ft | 181 kts | 263° |
| 2026-04-25 15:44 | 47.93133 | 12.12512 | 10021 ft | 181 kts | 263° |
| 2026-04-25 15:44 | 47.92952 | 12.10660 | 10016 ft | 180 kts | 263° |
| 2026-04-25 15:45 | 47.92775 | 12.08814 | 10018 ft | 180 kts | 263° |
| 2026-04-25 15:45 | 47.92595 | 12.06966 | 10014 ft | 180 kts | 263° |
| 2026-04-25 15:45 | 47.92417 | 12.05123 | 10016 ft | 180 kts | 263° |
| 2026-04-25 15:45 | 47.92357 | 12.04509 | 10013 ft | 180 kts | 263° |
| 2026-04-25 15:46 | 47.92053 | 12.01437 | 10013 ft | 180 kts | 263° |
| 2026-04-25 15:46 | 47.91873 | 11.99597 | 10014 ft | 180 kts | 263° |
| 2026-04-25 15:46 | 47.91694 | 11.97752 | 10013 ft | 180 kts | 263° |
| 2026-04-25 15:46 | 47.91513 | 11.95915 | 10011 ft | 179 kts | 263° |
| 2026-04-25 15:47 | 47.91332 | 11.94084 | 10011 ft | 179 kts | 263° |
| 2026-04-25 15:47 | 47.91152 | 11.92251 | 10008 ft | 179 kts | 263° |
| 2026-04-25 15:47 | 47.90971 | 11.90422 | 10009 ft | 178 kts | 263° |
| 2026-04-25 15:47 | 47.90791 | 11.88599 | 10007 ft | 178 kts | 263° |
| 2026-04-25 15:48 | 47.90610 | 11.86774 | 10009 ft | 179 kts | 263° |
| 2026-04-25 15:48 | 47.90429 | 11.84942 | 10011 ft | 179 kts | 263° |
| 2026-04-25 15:48 | 47.90246 | 11.83107 | 10012 ft | 180 kts | 263° |
| 2026-04-25 15:48 | 47.90062 | 11.81273 | 10001 ft | 178 kts | 262° |
| 2026-04-25 15:49 | 47.89882 | 11.79465 | 10017 ft | 177 kts | 263° |
| 2026-04-25 15:49 | 47.89701 | 11.77639 | 10012 ft | 179 kts | 263° |
| 2026-04-25 15:49 | 47.89520 | 11.75808 | 10013 ft | 179 kts | 263° |
| 2026-04-25 15:49 | 47.89340 | 11.73981 | 10011 ft | 178 kts | 263° |
| 2026-04-25 15:50 | 47.89158 | 11.72156 | 10016 ft | 179 kts | 263° |
| 2026-04-25 15:50 | 47.88972 | 11.70318 | 10018 ft | 180 kts | 263° |
| 2026-04-25 15:50 | 47.88790 | 11.68467 | 10019 ft | 181 kts | 263° |
| 2026-04-25 15:50 | 47.88608 | 11.66612 | 10022 ft | 181 kts | 263° |
| 2026-04-25 15:51 | 47.88421 | 11.64762 | 10017 ft | 180 kts | 263° |
| 2026-04-25 15:51 | 47.88359 | 11.64150 | 10021 ft | 180 kts | 263° |
| 2026-04-25 15:51 | 47.88052 | 11.61085 | 10020 ft | 180 kts | 263° |
| 2026-04-25 15:51 | 47.87866 | 11.59250 | 10028 ft | 180 kts | 263° |
| 2026-04-25 15:52 | 47.87681 | 11.57406 | 10026 ft | 180 kts | 263° |
| 2026-04-25 15:52 | 47.87494 | 11.55566 | 10025 ft | 180 kts | 263° |
| 2026-04-25 15:52 | 47.87307 | 11.53727 | 10027 ft | 180 kts | 263° |
| 2026-04-25 15:52 | 47.87121 | 11.51883 | 10027 ft | 181 kts | 263° |
| 2026-04-25 15:53 | 47.86935 | 11.50037 | 10028 ft | 180 kts | 263° |
| 2026-04-25 15:53 | 47.86749 | 11.48196 | 10027 ft | 180 kts | 263° |
| 2026-04-25 15:53 | 47.86558 | 11.46351 | 10031 ft | 181 kts | 262° |
| 2026-04-25 15:53 | 47.86371 | 11.44504 | 10032 ft | 182 kts | 263° |
| 2026-04-25 15:54 | 47.86180 | 11.42646 | 10035 ft | 182 kts | 262° |
| 2026-04-25 15:54 | 47.85985 | 11.40795 | 10033 ft | 181 kts | 262° |
| 2026-04-25 15:54 | 47.85799 | 11.38951 | 10033 ft | 180 kts | 262° |
| 2026-04-25 15:54 | 47.85613 | 11.37115 | 10034 ft | 180 kts | 263° |
| 2026-04-25 15:55 | 47.85433 | 11.35273 | 10036 ft | 180 kts | 262° |
| 2026-04-25 15:55 | 47.85241 | 11.33431 | 10037 ft | 180 kts | 262° |
| 2026-04-25 15:55 | 47.85047 | 11.31590 | 10032 ft | 180 kts | 262° |
| 2026-04-25 15:55 | 47.84857 | 11.29756 | 10033 ft | 180 kts | 262° |
| 2026-04-25 15:56 | 47.84667 | 11.27922 | 10036 ft | 179 kts | 262° |
| 2026-04-25 15:56 | 47.84477 | 11.26093 | 10034 ft | 179 kts | 263° |
| 2026-04-25 15:56 | 47.84286 | 11.24260 | 10033 ft | 180 kts | 262° |
| 2026-04-25 15:56 | 47.84096 | 11.22426 | 10031 ft | 180 kts | 262° |
| 2026-04-25 15:57 | 47.83904 | 11.20592 | 10040 ft | 181 kts | 262° |
| 2026-04-25 15:57 | 47.83712 | 11.18740 | 10039 ft | 182 kts | 263° |
| 2026-04-25 15:57 | 47.83517 | 11.16886 | 10044 ft | 182 kts | 262° |
| 2026-04-25 15:57 | 47.83322 | 11.15027 | 10047 ft | 182 kts | 262° |
| 2026-04-25 15:58 | 47.83128 | 11.13171 | 10047 ft | 182 kts | 262° |
| 2026-04-25 15:58 | 47.82934 | 11.11313 | 10043 ft | 182 kts | 262° |
| 2026-04-25 15:58 | 47.82736 | 11.09460 | 10045 ft | 181 kts | 262° |
| 2026-04-25 15:58 | 47.82541 | 11.07613 | 10045 ft | 181 kts | 262° |
| 2026-04-25 15:59 | 47.82360 | 11.05907 | 10042 ft | 181 kts | 262° |
| 2026-04-25 15:59 | 47.82165 | 11.04072 | 10044 ft | 180 kts | 262° |
| 2026-04-25 15:59 | 47.81969 | 11.02239 | 10048 ft | 180 kts | 263° |
| 2026-04-25 15:59 | 47.81774 | 11.00402 | 10049 ft | 180 kts | 262° |
| 2026-04-25 16:00 | 47.81640 | 10.99177 | 10046 ft | 180 kts | 262° |
| 2026-04-25 16:00 | 47.81509 | 10.97956 | 10047 ft | 180 kts | 262° |
| 2026-04-25 16:00 | 47.81179 | 10.94892 | 10047 ft | 181 kts | 262° |
| 2026-04-25 16:00 | 47.80982 | 10.93044 | 10051 ft | 181 kts | 262° |
| 2026-04-25 16:01 | 47.80783 | 10.91197 | 10050 ft | 181 kts | 262° |
| 2026-04-25 16:01 | 47.80583 | 10.89338 | 10016 ft | 183 kts | 263° |
| 2026-04-25 16:01 | 47.80382 | 10.87472 | 10062 ft | 184 kts | 262° |
| 2026-04-25 16:01 | 47.80176 | 10.85591 | 10064 ft | 185 kts | 262° |
| 2026-04-25 16:02 | 47.79973 | 10.83710 | 10057 ft | 184 kts | 262° |
| 2026-04-25 16:02 | 47.79769 | 10.81841 | 10061 ft | 183 kts | 262° |
| 2026-04-25 16:02 | 47.79566 | 10.79971 | 10063 ft | 184 kts | 262° |
| 2026-04-25 16:02 | 47.79362 | 10.78099 | 10060 ft | 183 kts | 262° |
| 2026-04-25 16:03 | 47.79159 | 10.76237 | 10059 ft | 183 kts | 262° |
| 2026-04-25 16:03 | 47.78955 | 10.74375 | 10058 ft | 184 kts | 262° |
| 2026-04-25 16:03 | 47.78749 | 10.72504 | 10057 ft | 184 kts | 262° |
| 2026-04-25 16:03 | 47.78547 | 10.70633 | 10056 ft | 184 kts | 262° |
| 2026-04-25 16:04 | 47.78342 | 10.68759 | 10061 ft | 184 kts | 262° |
| 2026-04-25 16:04 | 47.78134 | 10.66883 | 10055 ft | 184 kts | 262° |
| 2026-04-25 16:04 | 47.77927 | 10.65009 | 10053 ft | 184 kts | 262° |
| 2026-04-25 16:04 | 47.77720 | 10.63134 | 10058 ft | 184 kts | 262° |
| 2026-04-25 16:05 | 47.77582 | 10.61881 | 10060 ft | 185 kts | 262° |
| 2026-04-25 16:05 | 47.77303 | 10.59354 | 10057 ft | 187 kts | 262° |
| 2026-04-25 16:05 | 47.76881 | 10.55545 | 10055 ft | 187 kts | 262° |
| 2026-04-25 16:06 | 47.76683 | 10.53774 | 10055 ft | 186 kts | 262° |
| 2026-04-25 16:06 | 47.76492 | 10.52068 | 10055 ft | 186 kts | 262° |
| 2026-04-25 16:06 | 47.76282 | 10.50178 | 10056 ft | 186 kts | 262° |
| 2026-04-25 16:06 | 47.76074 | 10.48289 | 10050 ft | 185 kts | 262° |
| 2026-04-25 16:07 | 47.75862 | 10.46409 | 10051 ft | 185 kts | 262° |
| 2026-04-25 16:07 | 47.75791 | 10.45783 | 10052 ft | 185 kts | 262° |
| 2026-04-25 16:07 | 47.75440 | 10.42652 | 10050 ft | 185 kts | 262° |
| 2026-04-25 16:07 | 47.75228 | 10.40767 | 10051 ft | 185 kts | 262° |
| 2026-04-25 16:08 | 47.75017 | 10.38883 | 10052 ft | 185 kts | 262° |
| 2026-04-25 16:08 | 47.74804 | 10.36999 | 10049 ft | 185 kts | 262° |
| 2026-04-25 16:08 | 47.74588 | 10.35125 | 10044 ft | 184 kts | 259° |
| 2026-04-25 16:08 | 47.74175 | 10.33322 | 10047 ft | 186 kts | 251° |
| 2026-04-25 16:09 | 47.73727 | 10.31526 | 10045 ft | 186 kts | 252° |
| 2026-04-25 16:09 | 47.73284 | 10.29723 | 10040 ft | 186 kts | 252° |
| 2026-04-25 16:09 | 47.72834 | 10.27893 | 9925 ft | 191 kts | 252° |
| 2026-04-25 16:09 | 47.72375 | 10.26023 | 9805 ft | 195 kts | 251° |
| 2026-04-25 16:10 | 47.72064 | 10.24760 | 9715 ft | 197 kts | 251° |
| 2026-04-25 16:10 | 47.71435 | 10.22211 | 9549 ft | 199 kts | 251° |
| 2026-04-25 16:10 | 47.70959 | 10.20284 | 9417 ft | 199 kts | 252° |
| 2026-04-25 16:10 | 47.70483 | 10.18355 | 9292 ft | 199 kts | 252° |
| 2026-04-25 16:11 | 47.70006 | 10.16424 | 9159 ft | 200 kts | 252° |
| 2026-04-25 16:11 | 47.69527 | 10.14487 | 9031 ft | 201 kts | 252° |
| 2026-04-25 16:11 | 47.69046 | 10.12554 | 8900 ft | 199 kts | 252° |
| 2026-04-25 16:11 | 47.68569 | 10.10624 | 8774 ft | 200 kts | 251° |
| 2026-04-25 16:12 | 47.68090 | 10.08692 | 8648 ft | 200 kts | 251° |
| 2026-04-25 16:12 | 47.67610 | 10.06754 | 8520 ft | 201 kts | 251° |
| 2026-04-25 16:12 | 47.67127 | 10.04821 | 8395 ft | 200 kts | 251° |
| 2026-04-25 16:12 | 47.66967 | 10.04177 | 8354 ft | 200 kts | 251° |
| 2026-04-25 16:13 | 47.66166 | 10.00956 | 8143 ft | 200 kts | 251° |
| 2026-04-25 16:13 | 47.65683 | 9.99027 | 8015 ft | 201 kts | 252° |
| 2026-04-25 16:13 | 47.65203 | 9.97090 | 7889 ft | 201 kts | 251° |
| 2026-04-25 16:13 | 47.64722 | 9.95153 | 7760 ft | 201 kts | 252° |
| 2026-04-25 16:14 | 47.64236 | 9.93217 | 7642 ft | 200 kts | 251° |
| 2026-04-25 16:14 | 47.63752 | 9.91290 | 7516 ft | 200 kts | 251° |
| 2026-04-25 16:14 | 47.63265 | 9.89353 | 7390 ft | 201 kts | 251° |
| 2026-04-25 16:14 | 47.62775 | 9.87410 | 7272 ft | 202 kts | 251° |
| 2026-04-25 16:15 | 47.62291 | 9.85465 | 7151 ft | 202 kts | 251° |
| 2026-04-25 16:15 | 47.61805 | 9.83526 | 7029 ft | 201 kts | 251° |
| 2026-04-25 16:15 | 47.61319 | 9.81593 | 6911 ft | 200 kts | 251° |
| 2026-04-25 16:15 | 47.60826 | 9.79649 | 6789 ft | 203 kts | 251° |
| 2026-04-25 16:16 | 47.60336 | 9.77698 | 6670 ft | 201 kts | 251° |
| 2026-04-25 16:16 | 47.59848 | 9.75762 | 6545 ft | 201 kts | 251° |
| 2026-04-25 16:16 | 47.59360 | 9.73833 | 6424 ft | 200 kts | 251° |
| 2026-04-25 16:16 | 47.58871 | 9.71896 | 6295 ft | 201 kts | 251° |
| 2026-04-25 16:17 | 47.58383 | 9.69962 | 6175 ft | 201 kts | 251° |
| 2026-04-25 16:17 | 47.57893 | 9.68027 | 6042 ft | 201 kts | 251° |
| 2026-04-25 16:17 | 47.57403 | 9.66100 | 5919 ft | 200 kts | 250° |
| 2026-04-25 16:17 | 47.56911 | 9.64169 | 5788 ft | 201 kts | 251° |
| 2026-04-25 16:18 | 47.56424 | 9.62238 | 5659 ft | 200 kts | 251° |
| 2026-04-25 16:18 | 47.56263 | 9.61595 | 5619 ft | 199 kts | 251° |
| 2026-04-25 16:18 | 47.55455 | 9.58411 | 5412 ft | 198 kts | 250° |
| 2026-04-25 16:18 | 47.54967 | 9.56506 | 5287 ft | 198 kts | 250° |
| 2026-04-25 16:19 | 47.54483 | 9.54603 | 5162 ft | 198 kts | 251° |
| 2026-04-25 16:19 | 47.53997 | 9.52700 | 5039 ft | 198 kts | 251° |
| 2026-04-25 16:19 | 47.53531 | 9.50812 | 5006 ft | 194 kts | 252° |
| 2026-04-25 16:20 | 47.52625 | 9.47127 | 5000 ft | 189 kts | 251° |
| 2026-04-25 16:20 | 47.52174 | 9.45312 | 4995 ft | 187 kts | 251° |
| 2026-04-25 16:20 | 47.51273 | 9.41695 | 4998 ft | 189 kts | 251° |
| 2026-04-25 16:21 | 47.50825 | 9.39880 | 4999 ft | 187 kts | 251° |
| 2026-04-25 16:21 | 47.50563 | 9.38021 | 4988 ft | 185 kts | 272° |
| 2026-04-25 16:21 | 47.50726 | 9.36281 | 4999 ft | 183 kts | 281° |
| 2026-04-25 16:21 | 47.50934 | 9.34426 | 4998 ft | 183 kts | 279° |
| 2026-04-25 16:22 | 47.51141 | 9.32577 | 4994 ft | 182 kts | 281° |
| 2026-04-25 16:22 | 47.51379 | 9.30733 | 4994 ft | 183 kts | 281° |
| 2026-04-25 16:22 | 47.51616 | 9.28884 | 5002 ft | 185 kts | 281° |
| 2026-04-25 16:22 | 47.51829 | 9.26997 | 4992 ft | 186 kts | 274° |
| 2026-04-25 16:23 | 47.51792 | 9.25099 | 4994 ft | 186 kts | 281° |
| 2026-04-25 16:23 | 47.52441 | 9.23505 | 5000 ft | 186 kts | 322° |
| 2026-04-25 16:23 | 47.53661 | 9.22955 | 5000 ft | 189 kts | 1° |
| 2026-04-25 16:23 | 47.54856 | 9.23716 | 5013 ft | 193 kts | 41° |
| 2026-04-25 16:24 | 47.55458 | 9.25468 | 5007 ft | 192 kts | 82° |
| 2026-04-25 16:24 | 47.55172 | 9.27269 | 5001 ft | 178 kts | 126° |
| 2026-04-25 16:24 | 47.54302 | 9.28475 | 4992 ft | 168 kts | 141° |
| 2026-04-25 16:24 | 47.53433 | 9.29558 | 4990 ft | 160 kts | 140° |
| 2026-04-25 16:25 | 47.52593 | 9.30598 | 4980 ft | 156 kts | 141° |
| 2026-04-25 16:25 | 47.52316 | 9.30935 | 4991 ft | 153 kts | 141° |
| 2026-04-25 16:25 | 47.51307 | 9.33020 | 4989 ft | 149 kts | 119° |
| 2026-04-25 16:25 | 47.50976 | 9.34440 | 4944 ft | 150 kts | 100° |
| 2026-04-25 16:26 | 47.50762 | 9.36025 | 4706 ft | 163 kts | 100° |
| 2026-04-25 16:26 | 47.50559 | 9.37676 | 4414 ft | 160 kts | 98° |
| 2026-04-25 16:26 | 47.50392 | 9.39270 | 4121 ft | 155 kts | 100° |
| 2026-04-25 16:26 | 47.50208 | 9.40833 | 3838 ft | 154 kts | 99° |
| 2026-04-25 16:27 | 47.50045 | 9.42363 | 3582 ft | 149 kts | 98° |
| 2026-04-25 16:27 | 47.49874 | 9.43862 | 3331 ft | 147 kts | 99° |
| 2026-04-25 16:27 | 47.49708 | 9.45330 | 3074 ft | 145 kts | 99° |
| 2026-04-25 16:27 | 47.49546 | 9.46797 | 2817 ft | 144 kts | 98° |
| 2026-04-25 16:28 | 47.49391 | 9.48220 | 2566 ft | 138 kts | 99° |
| 2026-04-25 16:28 | 47.49242 | 9.49550 | 2339 ft | 124 kts | 99° |
| 2026-04-25 16:28 | 47.49107 | 9.50758 | 2127 ft | 115 kts | 99° |
| 2026-04-25 16:28 | 47.48983 | 9.51885 | 1924 ft | 108 kts | 99° |
| 2026-04-25 16:29 | 47.48844 | 9.52962 | 1723 ft | 105 kts | 99° |
| 2026-04-25 16:29 | 47.48722 | 9.54015 | 1561 ft | 103 kts | 99° |
| 2026-04-25 16:29 | 47.48614 | 9.55064 | 1347 ft | 101 kts | 98° |
| 2026-04-25 16:29 | 47.48515 | 9.55975 | 1311 ft | 79 kts | 99° |
| 2026-04-25 16:30 | 47.48465 | 9.56442 | 1307 ft | 11 kts | 112° |
| 2026-04-25 16:30 | 47.48463 | 9.56483 | 1307 ft | 4 kts | 343° |
| 2026-04-25 16:30 | 47.48475 | 9.56386 | 1308 ft | 14 kts | 275° |
| 2026-04-25 16:30 | 47.48492 | 9.56194 | 1308 ft | 23 kts | 278° |
| 2026-04-25 16:31 | 47.48519 | 9.55926 | 1311 ft | 27 kts | 275° |
| 2026-04-25 16:31 | 47.48543 | 9.55694 | 1311 ft | 23 kts | 275° |
| 2026-04-25 16:31 | 47.48568 | 9.55461 | 1311 ft | 23 kts | 278° |
| 2026-04-25 16:31 | 47.48603 | 9.55328 | 1310 ft | 9 kts | 352° |
| 2026-04-25 16:32 | 47.48660 | 9.55337 | 1309 ft | 8 kts | 5° |
| 2026-04-25 16:32 | 47.48705 | 9.55327 | 1309 ft | 6 kts | 281° |
| 2026-04-25 16:32 | 47.48709 | 9.55260 | 1309 ft | 8 kts | 276° |
| 2026-04-25 16:32 | 47.48715 | 9.55208 | 1309 ft | 2 kts | 334° |
| 2026-04-25 16:33 | 47.48727 | 9.55209 | 1309 ft | 0 kts | 7° |